Map

Track Data

SID SEASON NUMBER BASIN SUBBASIN NAME ISO_TIME NATURE LAT LON WMO_WIND WMO_PRES WMO_AGENCY TRACK_TYPE DIST2LAND LANDFALL IFLAG USA_AGENCY USA_ATCF_ID USA_LAT USA_LON USA_RECORD USA_STATUS USA_WIND USA_PRES USA_SSHS USA_R34_NE USA_R34_SE USA_R34_SW USA_R34_NW USA_R50_NE USA_R50_SE USA_R50_SW USA_R50_NW USA_R64_NE USA_R64_SE USA_R64_SW USA_R64_NW USA_POCI USA_ROCI USA_RMW USA_EYE TOKYO_LAT TOKYO_LON TOKYO_GRADE TOKYO_WIND TOKYO_PRES TOKYO_R50_DIR TOKYO_R50_LONG TOKYO_R50_SHORT TOKYO_R30_DIR TOKYO_R30_LONG TOKYO_R30_SHORT TOKYO_LAND CMA_LAT CMA_LON CMA_CAT CMA_WIND CMA_PRES HKO_LAT HKO_LON HKO_CAT HKO_WIND HKO_PRES NEWDELHI_LAT NEWDELHI_LON NEWDELHI_GRADE NEWDELHI_WIND NEWDELHI_PRES NEWDELHI_CI NEWDELHI_DP NEWDELHI_POCI REUNION_LAT REUNION_LON REUNION_TYPE REUNION_WIND REUNION_PRES REUNION_TNUM REUNION_CI REUNION_RMW REUNION_R34_NE REUNION_R34_SE REUNION_R34_SW REUNION_R34_NW REUNION_R50_NE REUNION_R50_SE REUNION_R50_SW REUNION_R50_NW REUNION_R64_NE REUNION_R64_SE REUNION_R64_SW REUNION_R64_NW BOM_LAT BOM_LON BOM_TYPE BOM_WIND BOM_PRES BOM_TNUM BOM_CI BOM_RMW BOM_R34_NE BOM_R34_SE BOM_R34_SW BOM_R34_NW BOM_R50_NE BOM_R50_SE BOM_R50_SW BOM_R50_NW BOM_R64_NE BOM_R64_SE BOM_R64_SW BOM_R64_NW BOM_ROCI BOM_POCI BOM_EYE BOM_POS_METHOD BOM_PRES_METHOD NADI_LAT NADI_LON NADI_CAT NADI_WIND NADI_PRES WELLINGTON_LAT WELLINGTON_LON WELLINGTON_WIND WELLINGTON_PRES DS824_LAT DS824_LON DS824_STAGE DS824_WIND DS824_PRES TD9636_LAT TD9636_LON TD9636_STAGE TD9636_WIND TD9636_PRES TD9635_LAT TD9635_LON TD9635_WIND TD9635_PRES TD9635_ROCI NEUMANN_LAT NEUMANN_LON NEUMANN_CLASS NEUMANN_WIND NEUMANN_PRES MLC_LAT MLC_LON MLC_CLASS MLC_WIND MLC_PRES USA_GUST BOM_GUST BOM_GUST_PER REUNION_GUST REUNION_GUST_PER USA_SEAHGT USA_SEARAD_NE USA_SEARAD_SE USA_SEARAD_SW USA_SEARAD_NW STORM_SPEED STORM_DIR
1944016S15160 1944 5 SP EA NOT_NAMED 1944-01-16 00:00:00 NR -14.7000 159.800 main 487 487 __________O___ -1 -14.7000 159.800 4 16 141
1944016S15160 1944 5 SP MM NOT_NAMED 1944-01-16 03:00:00 NR -15.3090 160.300 main 529 529 __________P___ -1 -15.3090 160.300 4 15 142
1944016S15160 1944 5 SP MM NOT_NAMED 1944-01-16 06:00:00 NR -15.9039 160.792 main 581 523 __________P___ -1 -15.9039 160.792 4 15 141
1944016S15160 1944 5 SP MM NOT_NAMED 1944-01-16 09:00:00 NR -16.4719 161.262 main 508 438 __________P___ -1 -16.4719 161.262 4 14 142
1944016S15160 1944 5 SP MM NOT_NAMED 1944-01-16 12:00:00 NR -17.0000 161.700 main 438 368 __________O___ -1 -17.0000 161.700 4 13 142
1944016S15160 1944 5 SP MM NOT_NAMED 1944-01-16 15:00:00 NR -17.4810 162.099 main 368 307 __________P___ -1 -17.4810 162.099 4 12 141
1944016S15160 1944 5 SP MM NOT_NAMED 1944-01-16 18:00:00 NR -17.9287 162.480 main 307 252 __________P___ -1 -17.9287 162.480 4 12 140
1944016S15160 1944 5 SP MM NOT_NAMED 1944-01-16 21:00:00 NR -18.3621 162.871 main 237 177 __________P___ -1 -18.3621 162.871 4 12 138
1944016S15160 1944 5 SP MM NOT_NAMED 1944-01-17 00:00:00 NR -18.8000 163.300 main 177 105 __________O___ -1 -18.8000 163.300 4 13 135
1944016S15160 1944 5 SP MM NOT_NAMED 1944-01-17 03:00:00 NR -19.2805 163.827 main 105 59 __________P___ -1 -19.2805 163.827 4 14 133
1944016S15160 1944 5 SP MM NOT_NAMED 1944-01-17 06:00:00 NR -19.7657 164.392 main 54 30 __________P___ -1 -19.7657 164.392 4 14 132
1944016S15160 1944 5 SP MM NOT_NAMED 1944-01-17 09:00:00 NR -20.2430 164.961 main 45 23 __________P___ -1 -20.2430 164.961 4 14 132
1944016S15160 1944 5 SP MM NOT_NAMED 1944-01-17 12:00:00 NR -20.7000 165.500 main 30 30 __________O___ -1 -20.7000 165.500 4 12 135
1944016S15160 1944 5 SP MM NOT_NAMED 1944-01-17 15:00:00 NR -21.0988 165.892 main 33 10 __________P___ -1 -21.0988 165.892 4 11 138
1944016S15160 1944 5 SP MM NOT_NAMED 1944-01-17 18:00:00 NR -21.4812 166.258 main 15 0 __________P___ -1 -21.4812 166.258 4 11 137
1944016S15160 1944 5 SP MM NOT_NAMED 1944-01-17 21:00:00 NR -21.8732 166.670 main 10 0 __________P___ -1 -21.8732 166.670 4 12 133
1944016S15160 1944 5 SP MM NOT_NAMED 1944-01-18 00:00:00 NR -22.3000 167.200 main 20 20 __________O___ -1 -22.3000 167.200 4 15 127
1944016S15160 1944 5 SP MM NOT_NAMED 1944-01-18 03:00:00 NR -22.7998 167.980 main 116 116 __________P___ -1 -22.7998 167.980 4 19 124
1944016S15160 1944 5 SP MM NOT_NAMED 1944-01-18 06:00:00 NR -23.3314 168.879 main 224 224 __________P___ -1 -23.3314 168.879 4 20 122
1944016S15160 1944 5 SP MM NOT_NAMED 1944-01-18 09:00:00 NR -23.8718 169.815 main 337 337 __________P___ -1 -23.8718 169.815 4 20 123
1944016S15160 1944 5 SP MM NOT_NAMED 1944-01-18 12:00:00 NR -24.4000 170.700 main 444 444 __________O___ -1 -24.4000 170.700 4 17 126
1944016S15160 1944 5 SP MM NOT_NAMED 1944-01-18 15:00:00 NR -24.8919 171.335 main 525 525 __________P___ -1 -24.8919 171.335 4 15 131
1944016S15160 1944 5 SP MM NOT_NAMED 1944-01-18 18:00:00 NR -25.3716 171.918 main 606 606 __________P___ -1 -25.3716 171.918 4 14 131
1944016S15160 1944 5 SP MM NOT_NAMED 1944-01-18 21:00:00 NR -25.8409 172.541 main 681 681 __________P___ -1 -25.8409 172.541 4 16 127
1944016S15160 1944 5 SP MM NOT_NAMED 1944-01-19 00:00:00 NR -26.3000 173.300 main 778 778 __________O___ -1 -26.3000 173.300 4 19 119
1944016S15160 1944 5 SP MM NOT_NAMED 1944-01-19 03:00:00 NR -26.7609 174.382 main 869 848 __________P___ -1 -26.7609 174.382 4 22 114
1944016S15160 1944 5 SP MM NOT_NAMED 1944-01-19 06:00:00 NR -27.2028 175.602 main 851 842 __________P___ -1 -27.2028 175.602 4 24 111
1944016S15160 1944 5 SP MM NOT_NAMED 1944-01-19 09:00:00 NR -27.6173 176.845 main 850 848 __________P___ -1 -27.6173 176.845 4 23 111
1944016S15160 1944 5 SP MM NOT_NAMED 1944-01-19 12:00:00 NR -28.0000 178.000 main 866 866 __________O___ -1 -28.0000 178.000 4 19 111
1944016S15160 1944 5 SP MM NOT_NAMED 1944-01-19 15:00:00 NR -28.3141 178.871 main 888 883 __________P___ -1 -28.3141 178.871 4 16 113
1944016S15160 1944 5 SP MM NOT_NAMED 1944-01-19 18:00:00 NR -28.6104 179.641 main 896 896 __________P___ -1 -28.6104 179.641 4 15 115
1944016S15160 1944 5 SP MM NOT_NAMED 1944-01-19 21:00:00 NR -28.9269 180.390 main 915 912 __________P___ -1 -28.9269 -179.610 4 15 117
1944016S15160 1944 5 SP MM NOT_NAMED 1944-01-20 00:00:00 NR -29.3000 181.200 main 930 930 __________O___ -1 -29.3000 -178.800 4 18 118
1944016S15160 1944 5 SP MM NOT_NAMED 1944-01-20 03:00:00 NR -29.7688 182.211 main 940 926 __________P___ -1 -29.7688 -177.789 4 21 119
1944016S15160 1944 5 SP MM NOT_NAMED 1944-01-20 06:00:00 NR -30.2918 183.296 main 931 923 __________P___ -1 -30.2918 -176.704 4 22 120
1944016S15160 1944 5 SP MM NOT_NAMED 1944-01-20 09:00:00 NR -30.8436 184.409 main 934 928 __________P___ -1 -30.8436 -175.591 4 22 120
1944016S15160 1944 5 SP MM NOT_NAMED 1944-01-20 12:00:00 NR -31.4000 185.500 main 943 940 __________O___ -1 -31.4000 -174.500 4 21 121
1944016S15160 1944 5 SP MM NOT_NAMED 1944-01-20 15:00:00 NR -31.9430 186.532 main 966 965 __________P___ -1 -31.9430 -173.468 4 20 122
1944016S15160 1944 5 SP MM NOT_NAMED 1944-01-20 18:00:00 NR -32.4722 187.512 main 993 993 __________P___ -1 -32.4722 -172.488 4 19 123
1944016S15160 1944 5 SP MM NOT_NAMED 1944-01-20 21:00:00 NR -32.9904 188.461 main 1036 1036 __________P___ -1 -32.9904 -171.539 4 19 123
1944016S15160 1944 5 SP MM NOT_NAMED 1944-01-21 00:00:00 NR -33.5000 189.400 main 1079 __________O___ -1 -33.5000 -170.600 4 19 123

Digital Typhoon Data and Search

About IBTrACS Database

This database is a web-friendly format of International Best Track Archive for Climate Stewardship (IBTrACS), a global best track data archive curated by NOAA dating back to 1842.

Updated: 2021-11-26